createdAt,value
2019-03-08T00:00:44.014Z,6.70
2019-03-08T00:03:11.986Z,6.70
2019-03-08T00:05:40.197Z,6.70
2019-03-08T00:08:08.516Z,6.70
2019-03-08T00:10:36.592Z,6.80
2019-03-08T00:13:05.392Z,6.80
2019-03-08T00:15:34.220Z,6.80
2019-03-08T00:18:02.188Z,6.80
2019-03-08T00:20:30.144Z,6.80
2019-03-08T00:22:58.048Z,6.80
2019-03-08T00:25:26.025Z,6.80
2019-03-08T00:27:53.989Z,6.80
2019-03-08T00:30:22.250Z,6.90
2019-03-08T00:32:50.132Z,6.80
2019-03-08T00:35:18.325Z,6.80
2019-03-08T00:37:46.231Z,6.90
2019-03-08T00:40:14.336Z,6.80
2019-03-08T00:42:42.612Z,6.70
2019-03-08T00:45:11.098Z,6.80
2019-03-08T00:47:39.371Z,6.80
2019-03-08T00:50:07.513Z,6.80
2019-03-08T00:52:35.421Z,6.70
2019-03-08T00:55:03.580Z,6.70
2019-03-08T00:57:31.473Z,6.80
2019-03-08T00:59:59.444Z,6.70
2019-03-08T01:02:27.679Z,6.70
2019-03-08T01:04:55.646Z,6.70
2019-03-08T01:07:23.523Z,6.70
2019-03-08T01:09:51.511Z,6.70
2019-03-08T01:12:19.472Z,6.70
2019-03-08T01:14:47.749Z,6.70
2019-03-08T01:17:15.715Z,6.70
2019-03-08T01:19:43.699Z,6.80
2019-03-08T01:22:11.664Z,6.70
2019-03-08T01:24:39.641Z,6.70
2019-03-08T01:27:07.595Z,6.80
2019-03-08T01:29:35.487Z,6.90
2019-03-08T01:32:03.391Z,6.90
2019-03-08T01:34:32.160Z,6.90
2019-03-08T01:37:01.811Z,6.90
2019-03-08T01:39:29.701Z,7.00
2019-03-08T01:41:57.681Z,7.00
2019-03-08T01:44:25.569Z,6.90
2019-03-08T01:46:55.987Z,7.00
2019-03-08T01:49:23.915Z,7.00
2019-03-08T01:51:51.785Z,7.00
2019-03-08T01:54:21.089Z,6.90
2019-03-08T01:56:48.981Z,6.90
2019-03-08T01:59:16.885Z,6.90
2019-03-08T02:01:44.841Z,7.00
2019-03-08T02:04:12.728Z,7.10
2019-03-08T02:06:41.163Z,7.10
2019-03-08T02:09:09.037Z,7.10
2019-03-08T02:11:37.021Z,7.10
2019-03-08T02:14:04.979Z,7.10
2019-03-08T02:16:32.862Z,7.10
2019-03-08T02:19:04.173Z,7.20
2019-03-08T02:21:32.059Z,7.10
2019-03-08T02:24:00.208Z,7.10
2019-03-08T02:26:28.492Z,7.10
2019-03-08T02:28:57.776Z,7.10
2019-03-08T02:31:25.960Z,7.00
2019-03-08T02:33:54.171Z,7.00
2019-03-08T02:36:22.045Z,7.10
2019-03-08T02:38:50.009Z,7.10
2019-03-08T02:41:17.987Z,7.10
2019-03-08T02:43:46.259Z,7.10
2019-03-08T02:46:14.243Z,7.10
2019-03-08T02:48:43.029Z,7.10
2019-03-08T02:51:10.982Z,7.10
2019-03-08T02:53:42.018Z,7.00
2019-03-08T02:56:22.221Z,7.00
2019-03-08T02:58:56.121Z,7.00
2019-03-08T03:01:24.089Z,6.90
2019-03-08T03:03:52.045Z,6.90
2019-03-08T03:06:20.273Z,6.90
2019-03-08T03:08:48.164Z,6.90
2019-03-08T03:11:16.047Z,6.90
2019-03-08T03:13:44.489Z,6.80
2019-03-08T03:16:12.363Z,6.80
2019-03-08T03:18:40.260Z,6.80
2019-03-08T03:21:08.140Z,6.70
2019-03-08T03:23:45.385Z,6.70
2019-03-08T03:26:13.265Z,6.70
2019-03-08T03:28:41.220Z,6.60
2019-03-08T03:31:09.209Z,6.40
2019-03-08T03:33:44.201Z,6.30
2019-03-08T03:36:09.259Z,6.40
2019-03-08T03:38:40.439Z,6.30
2019-03-08T03:41:08.400Z,6.40
2019-03-08T03:43:36.277Z,6.40
2019-03-08T03:46:04.165Z,6.30
2019-03-08T03:48:32.051Z,6.30
2019-03-08T03:50:59.937Z,6.30
2019-03-08T03:53:31.001Z,6.30
2019-03-08T03:55:59.221Z,6.30
2019-03-08T03:58:27.207Z,6.30
2019-03-08T04:00:58.158Z,6.20
2019-03-08T04:03:26.046Z,6.30
2019-03-08T04:06:06.140Z,6.20
2019-03-08T04:08:34.036Z,6.30
2019-03-08T04:11:02.194Z,6.40
2019-03-08T04:13:30.093Z,6.40
2019-03-08T04:15:57.972Z,6.40
2019-03-08T04:18:26.221Z,6.50
2019-03-08T04:20:54.435Z,6.50
2019-03-08T04:23:22.325Z,6.50
2019-03-08T04:25:50.220Z,6.50
2019-03-08T04:28:18.126Z,6.50
2019-03-08T04:30:46.674Z,6.50
2019-03-08T04:33:14.620Z,6.50
2019-03-08T04:35:42.577Z,6.60
2019-03-08T04:38:13.293Z,6.60
2019-03-08T04:40:44.301Z,6.60
2019-03-08T04:43:12.181Z,6.60
2019-03-08T04:45:40.132Z,6.50
2019-03-08T04:48:08.389Z,6.50
2019-03-08T04:50:36.305Z,6.50
2019-03-08T04:53:07.604Z,6.50
2019-03-08T04:55:38.320Z,6.60
2019-03-08T04:58:06.282Z,6.60
2019-03-08T05:00:34.249Z,6.60
2019-03-08T05:03:02.566Z,6.60
2019-03-08T05:05:30.455Z,6.60
2019-03-08T05:07:58.357Z,6.60
2019-03-08T05:10:26.281Z,6.60
2019-03-08T05:12:54.229Z,6.60
2019-03-08T05:15:22.156Z,6.60
2019-03-08T05:17:50.047Z,6.70
2019-03-08T05:20:20.578Z,6.70
2019-03-08T05:22:48.510Z,6.60
2019-03-08T05:25:22.902Z,6.60
2019-03-08T05:27:56.985Z,6.60
2019-03-08T05:30:24.865Z,6.60
2019-03-08T05:32:52.813Z,6.60
2019-03-08T05:35:20.695Z,6.50
2019-03-08T05:37:49.018Z,6.50
2019-03-08T05:40:16.978Z,6.50
2019-03-08T05:42:44.924Z,6.40
2019-03-08T05:45:12.868Z,6.50
2019-03-08T05:47:46.898Z,6.40
2019-03-08T05:50:14.869Z,6.40
2019-03-08T05:52:43.861Z,6.30
2019-03-08T05:55:11.825Z,6.30
2019-03-08T05:57:39.805Z,6.30
2019-03-08T06:00:08.359Z,6.30
2019-03-08T06:02:36.248Z,6.30
2019-03-08T06:05:07.411Z,6.30
2019-03-08T06:07:35.693Z,6.30
2019-03-08T06:10:04.461Z,6.30
2019-03-08T06:12:32.357Z,6.30
2019-03-08T06:15:00.510Z,6.30
2019-03-08T06:17:28.413Z,6.40
2019-03-08T06:19:56.669Z,6.50
2019-03-08T06:22:24.823Z,6.50
2019-03-08T06:24:53.305Z,6.60
2019-03-08T06:27:21.191Z,6.60
2019-03-08T06:29:49.076Z,6.70
2019-03-08T06:32:17.108Z,6.70
2019-03-08T06:34:47.864Z,6.70
2019-03-08T06:37:16.123Z,6.60
2019-03-08T06:39:47.353Z,6.60
2019-03-08T06:42:15.233Z,6.70
2019-03-08T06:44:43.124Z,6.70
2019-03-08T06:47:11.010Z,6.80
2019-03-08T06:49:41.905Z,6.80
2019-03-08T06:52:12.758Z,6.90
2019-03-08T06:54:41.141Z,6.90
2019-03-08T06:57:09.759Z,6.80
2019-03-08T06:59:41.827Z,6.90
2019-03-08T07:02:11.121Z,7.00
2019-03-08T07:04:39.029Z,7.10
2019-03-08T07:07:07.213Z,7.20
2019-03-08T07:09:35.204Z,7.30
2019-03-08T07:12:03.207Z,7.20
2019-03-08T07:14:31.244Z,7.30
2019-03-08T07:16:59.214Z,7.40
2019-03-08T07:19:27.111Z,7.40
2019-03-08T07:22:01.573Z,7.30
2019-03-08T07:24:47.556Z,7.40
2019-03-08T07:27:33.638Z,7.50
2019-03-08T07:30:23.765Z,7.60
2019-03-08T07:33:09.013Z,7.80
2019-03-08T07:36:00.653Z,7.80
2019-03-08T07:38:54.035Z,7.90
2019-03-08T07:41:39.225Z,8.10
2019-03-08T07:44:29.365Z,8.00
2019-03-08T07:47:19.168Z,7.90
2019-03-08T07:50:05.045Z,7.90
2019-03-08T07:52:43.908Z,7.70
2019-03-08T07:55:29.923Z,7.70
2019-03-08T07:58:14.728Z,7.60
2019-03-08T08:01:01.789Z,7.60
2019-03-08T08:03:51.944Z,7.50
2019-03-08T08:06:42.065Z,7.60
2019-03-08T08:09:41.996Z,7.50
2019-03-08T08:12:27.712Z,7.40
2019-03-08T08:15:18.240Z,7.40
2019-03-08T08:18:08.562Z,7.40
2019-03-08T08:20:55.607Z,7.30
2019-03-08T08:23:36.853Z,7.30
2019-03-08T08:26:22.126Z,7.10
2019-03-08T08:29:07.596Z,7.10
2019-03-08T08:31:47.848Z,7.10
2019-03-08T08:34:22.386Z,7.20
2019-03-08T08:37:16.264Z,7.10
2019-03-08T08:40:15.725Z,7.00
2019-03-08T08:42:54.065Z,7.20
2019-03-08T08:45:38.225Z,7.10
2019-03-08T08:48:28.302Z,7.20
2019-03-08T08:51:11.987Z,7.10
2019-03-08T08:53:46.771Z,7.00
2019-03-08T08:56:42.162Z,6.90
2019-03-08T08:59:52.671Z,6.80
2019-03-08T09:02:26.751Z,6.80
2019-03-08T09:05:28.113Z,6.70
2019-03-08T09:11:51.931Z,6.80
2019-03-08T09:32:24.740Z,6.40
2019-03-08T09:38:25.167Z,6.40
2019-03-08T09:47:11.255Z,6.50
2019-03-08T10:11:11.203Z,6.60
2019-03-08T10:14:01.705Z,6.80
2019-03-08T10:16:38.233Z,7.00
2019-03-08T10:19:49.602Z,7.00
2019-03-08T10:22:30.011Z,6.90
2019-03-08T10:25:45.810Z,6.90
2019-03-08T10:32:08.444Z,6.80
2019-03-08T10:35:03.556Z,6.80
2019-03-08T10:37:54.164Z,6.90
2019-03-08T10:40:40.961Z,6.90
2019-03-08T10:43:34.562Z,7.10
2019-03-08T10:46:28.134Z,7.30
2019-03-08T10:49:08.867Z,7.70
2019-03-08T10:52:00.397Z,7.90
2019-03-08T10:54:55.136Z,8.10
2019-03-08T10:57:37.215Z,8.60
2019-03-08T11:00:39.161Z,8.80
2019-03-08T11:03:27.208Z,8.80
2019-03-08T11:06:03.513Z,8.50
2019-03-08T11:08:45.089Z,8.50
2019-03-08T11:11:36.121Z,8.50
2019-03-08T11:14:42.522Z,8.30
2019-03-08T11:17:27.678Z,8.20
2019-03-08T11:20:17.612Z,8.10
2019-03-08T11:23:05.180Z,8.20
2019-03-08T11:26:01.746Z,8.10
2019-03-08T11:28:55.011Z,8.20
2019-03-08T11:31:42.156Z,8.30
2019-03-08T11:34:27.820Z,8.60
2019-03-08T11:37:08.916Z,9.00
2019-03-08T11:40:00.975Z,9.50
2019-03-08T11:42:34.357Z,9.60
2019-03-08T11:45:26.358Z,9.30
2019-03-08T11:48:17.181Z,9.10
2019-03-08T11:51:12.796Z,9.10
2019-03-08T11:54:08.417Z,9.40
2019-03-08T11:56:56.331Z,9.50
2019-03-08T11:59:43.473Z,9.80
2019-03-08T13:50:34.928Z,13.40
2019-03-08T13:53:14.426Z,14.60
2019-03-08T13:55:43.046Z,15.20
2019-03-08T13:58:11.906Z,14.70
2019-03-08T14:00:45.758Z,15.40
2019-03-08T14:03:21.780Z,14.30
2019-03-08T14:05:51.382Z,13.00
2019-03-08T14:08:19.687Z,12.70
2019-03-08T14:10:47.765Z,12.20
2019-03-08T14:13:15.660Z,12.20
2019-03-08T14:15:43.569Z,12.40
2019-03-08T14:18:11.753Z,12.40
2019-03-08T14:20:39.729Z,14.20
2019-03-08T14:23:07.987Z,13.60
2019-03-08T14:25:36.293Z,12.40
2019-03-08T14:28:04.674Z,12.70
2019-03-08T14:30:36.005Z,11.80
2019-03-08T14:33:14.737Z,11.30
2019-03-08T14:35:47.761Z,11.00
2019-03-08T14:38:54.556Z,10.50
2019-03-08T14:45:40.322Z,10.30
2019-03-08T14:55:00.151Z,10.00
2019-03-08T14:57:28.645Z,10.10
2019-03-08T14:59:56.580Z,10.00
2019-03-08T15:02:24.585Z,10.00
2019-03-08T15:04:52.537Z,10.10
2019-03-08T15:07:20.814Z,10.10
2019-03-08T15:09:48.805Z,10.00
2019-03-08T15:12:16.941Z,10.10
2019-03-08T15:14:50.985Z,10.30
2019-03-08T15:17:18.886Z,10.20
2019-03-08T15:19:46.804Z,10.50
2019-03-08T15:22:20.652Z,10.30
2019-03-08T15:24:51.752Z,10.30
2019-03-08T15:27:22.864Z,10.20
2019-03-08T15:29:54.527Z,10.00
2019-03-08T15:32:20.509Z,10.00
2019-03-08T15:34:48.389Z,10.10
2019-03-08T15:37:16.374Z,10.00
2019-03-08T15:39:44.356Z,10.10
2019-03-08T15:42:15.480Z,9.80
2019-03-08T15:44:43.395Z,9.70
2019-03-08T15:47:13.618Z,9.80
2019-03-08T15:49:41.272Z,9.70
2019-03-08T15:52:09.243Z,9.90
2019-03-08T15:54:37.636Z,9.70
2019-03-08T15:57:05.855Z,9.80
2019-03-08T15:59:33.732Z,9.80
2019-03-08T16:02:02.090Z,10.00
2019-03-08T16:04:31.250Z,10.30
2019-03-08T16:07:01.967Z,10.30
2019-03-08T16:09:29.854Z,10.60
2019-03-08T16:11:57.998Z,10.70
2019-03-08T16:14:25.932Z,11.30
2019-03-08T16:16:53.846Z,11.80
2019-03-08T16:19:24.724Z,11.80
2019-03-08T16:21:52.049Z,11.40
2019-03-08T16:24:19.942Z,11.00
2019-03-08T16:26:50.991Z,10.30
2019-03-08T16:29:18.888Z,9.90
2019-03-08T16:32:03.901Z,9.60
2019-03-08T16:34:31.692Z,9.60
2019-03-08T16:37:18.620Z,9.40
2019-03-08T16:39:55.585Z,9.20
2019-03-08T16:42:31.597Z,9.10
2019-03-08T16:45:13.005Z,9.10
2019-03-08T16:47:58.087Z,9.00
2019-03-08T16:50:43.029Z,9.00
2019-03-08T16:53:21.073Z,9.00
2019-03-08T16:56:04.823Z,8.90
2019-03-08T16:58:47.085Z,8.80
2019-03-08T17:01:43.204Z,8.70
2019-03-08T17:04:31.685Z,8.70
2019-03-08T17:07:17.709Z,8.70
2019-03-08T17:10:05.018Z,8.70
2019-03-08T17:12:43.733Z,8.70
2019-03-08T17:15:17.964Z,8.60
2019-03-08T17:18:03.664Z,8.60
2019-03-08T17:20:40.048Z,8.50
2019-03-08T17:23:21.305Z,8.50
2019-03-08T17:26:11.433Z,8.50
2019-03-08T17:29:01.254Z,8.50
2019-03-08T17:31:51.333Z,8.40
2019-03-08T17:34:41.244Z,8.40
2019-03-08T17:37:17.744Z,8.40
2019-03-08T17:40:03.559Z,8.30
2019-03-08T17:42:48.757Z,8.20
2019-03-08T17:45:38.896Z,8.20
2019-03-08T17:48:25.942Z,8.20
2019-03-08T17:51:11.544Z,8.10
2019-03-08T17:54:01.614Z,8.10
2019-03-08T17:56:53.704Z,8.10
2019-03-08T17:59:38.051Z,8.00
2019-03-08T18:17:44.848Z,7.90
2019-03-08T18:24:04.319Z,7.90
2019-03-08T18:27:10.682Z,7.90
2019-03-08T18:59:18.844Z,7.80
2019-03-08T19:02:11.049Z,7.80
2019-03-08T19:09:01.003Z,7.80
2019-03-08T19:24:00.485Z,7.60
